createdAt,value
2023-05-01T00:00:47.902Z,64.30
2023-05-01T00:01:51.084Z,64.35
2023-05-01T00:02:53.804Z,64.35
2023-05-01T00:03:58.437Z,64.44
2023-05-01T00:05:02.020Z,64.71
2023-05-01T00:06:05.543Z,64.69
2023-05-01T00:07:07.809Z,64.52
2023-05-01T00:08:10.129Z,64.52
2023-05-01T00:09:12.289Z,64.41
2023-05-01T00:10:14.696Z,64.14
2023-05-01T00:11:18.849Z,64.29
2023-05-01T00:12:20.792Z,64.47
2023-05-01T00:13:23.040Z,64.78
2023-05-01T00:14:25.563Z,64.67
2023-05-01T00:15:27.731Z,64.98
2023-05-01T00:16:30.121Z,65.16
2023-05-01T00:17:32.389Z,65.19
2023-05-01T00:18:34.598Z,65.42
2023-05-01T00:19:36.571Z,65.34
2023-05-01T00:20:38.854Z,65.47
2023-05-01T00:21:41.184Z,65.63
2023-05-01T00:22:43.134Z,65.69
2023-05-01T00:23:45.252Z,65.42
2023-05-01T00:24:48.201Z,65.32
2023-05-01T00:25:50.493Z,65.63
2023-05-01T00:26:53.287Z,65.58
2023-05-01T00:27:55.595Z,65.52
2023-05-01T00:28:58.275Z,65.66
2023-05-01T00:30:00.495Z,65.74
2023-05-01T00:31:03.306Z,65.79
2023-05-01T00:33:20.516Z,65.86
2023-05-01T00:34:22.695Z,66.02
2023-05-01T00:35:24.783Z,66.06
2023-05-01T00:36:27.101Z,66.03
2023-05-01T00:37:29.291Z,66.08
2023-05-01T00:38:31.574Z,65.80
2023-05-01T00:39:34.317Z,65.58
2023-05-01T00:41:53.814Z,65.62
2023-05-01T00:42:56.701Z,65.66
2023-05-01T00:43:58.965Z,65.49
2023-05-01T00:45:01.240Z,65.55
2023-05-01T00:46:03.778Z,65.41
2023-05-01T00:47:06.448Z,65.25
2023-05-01T00:48:09.670Z,65.12
2023-05-01T00:49:12.044Z,64.96
2023-05-01T00:50:16.261Z,65.29
2023-05-01T00:51:20.487Z,65.42
2023-05-01T00:52:25.032Z,65.23
2023-05-01T00:53:27.504Z,65.16
2023-05-01T00:54:29.683Z,65.76
2023-05-01T00:55:32.279Z,65.57
2023-05-01T00:56:34.827Z,65.61
2023-05-01T00:57:37.430Z,65.59
2023-05-01T00:58:40.141Z,65.59
2023-05-01T00:59:42.905Z,65.89
2023-05-01T01:00:45.310Z,65.40
2023-05-01T01:01:47.746Z,65.60
2023-05-01T01:02:50.460Z,65.67
2023-05-01T01:03:52.806Z,65.72
2023-05-01T01:04:55.203Z,66.19
2023-05-01T01:06:18.369Z,66.07
2023-05-01T01:07:49.411Z,66.03
2023-05-01T01:10:46.910Z,65.39
2023-05-01T01:12:17.552Z,65.78
2023-05-01T01:13:38.616Z,65.58
2023-05-01T01:15:06.228Z,64.89
2023-05-01T01:16:15.489Z,64.38
2023-05-01T01:17:33.430Z,63.99
2023-05-01T01:18:42.569Z,63.96
2023-05-01T01:20:17.423Z,63.72
2023-05-01T01:22:44.879Z,63.90
2023-05-01T01:24:10.822Z,64.14
2023-05-01T01:25:31.830Z,64.04
2023-05-01T01:26:40.584Z,64.16
2023-05-01T01:28:14.673Z,64.23
2023-05-01T01:29:23.284Z,64.62
2023-05-01T01:30:45.155Z,64.56
2023-05-01T01:32:08.881Z,64.71
2023-05-01T01:33:36.079Z,65.26
2023-05-01T01:35:59.715Z,65.09
2023-05-01T01:37:23.947Z,65.24
2023-05-01T01:39:55.105Z,65.31
2023-05-01T01:41:13.825Z,65.32
2023-05-01T01:42:19.628Z,65.70
2023-05-01T01:43:24.208Z,65.69
2023-05-01T01:45:46.080Z,65.56
2023-05-01T01:46:52.751Z,65.88
2023-05-01T01:47:56.682Z,65.64
2023-05-01T01:49:02.465Z,65.72
2023-05-01T01:50:07.233Z,65.95
2023-05-01T01:52:25.129Z,65.77
2023-05-01T01:53:30.073Z,65.61
2023-05-01T01:54:39.776Z,65.38
2023-05-01T01:55:44.521Z,65.36
2023-05-01T01:56:50.024Z,65.69
2023-05-01T01:57:53.283Z,65.35
2023-05-01T01:58:57.800Z,65.37
2023-05-01T02:00:00.017Z,65.53
2023-05-01T02:01:03.880Z,65.52
2023-05-01T02:02:08.360Z,65.39
2023-05-01T02:03:12.991Z,65.29
2023-05-01T02:04:17.621Z,65.49
2023-05-01T02:05:21.220Z,65.48
2023-05-01T02:06:25.440Z,65.15
2023-05-01T02:07:30.086Z,65.40
2023-05-01T02:08:35.056Z,65.53
2023-05-01T02:09:39.940Z,65.68
2023-05-01T02:10:45.010Z,65.61
2023-05-01T02:11:48.995Z,65.57
2023-05-01T02:12:53.613Z,65.68
2023-05-01T02:13:58.893Z,65.69
2023-05-01T02:15:02.014Z,65.89
2023-05-01T02:16:05.579Z,65.82
2023-05-01T02:17:10.298Z,65.91
2023-05-01T02:18:14.655Z,65.96
2023-05-01T02:19:18.392Z,65.98
2023-05-01T02:20:21.749Z,66.18
2023-05-01T02:21:25.270Z,66.28
2023-05-01T02:22:29.150Z,66.30
2023-05-01T02:23:31.606Z,66.53
2023-05-01T02:24:36.379Z,66.44
2023-05-01T02:25:39.816Z,66.62
2023-05-01T02:26:45.074Z,66.71
2023-05-01T02:28:03.505Z,66.54
2023-05-01T02:29:05.818Z,66.68
2023-05-01T02:30:11.811Z,66.91
2023-05-01T02:31:14.219Z,67.20
2023-05-01T02:32:17.082Z,67.25
2023-05-01T02:33:20.072Z,67.31
2023-05-01T02:34:22.396Z,67.35
2023-05-01T02:35:24.703Z,67.51
2023-05-01T02:36:26.759Z,67.73
2023-05-01T02:37:29.133Z,67.57
2023-05-01T02:38:31.384Z,67.74
2023-05-01T02:39:34.466Z,68.00
2023-05-01T02:40:38.708Z,68.04
2023-05-01T02:41:41.684Z,68.05
2023-05-01T02:42:45.297Z,68.35
2023-05-01T02:43:51.054Z,68.45
2023-05-01T02:46:14.123Z,68.55
2023-05-01T02:47:20.725Z,68.66
2023-05-01T02:49:37.960Z,68.76
2023-05-01T02:50:42.673Z,69.06
2023-05-01T02:51:46.764Z,69.08
2023-05-01T02:52:50.758Z,69.16
2023-05-01T02:54:01.620Z,69.16
2023-05-01T02:55:04.606Z,69.30
2023-05-01T02:56:07.770Z,69.29
2023-05-01T02:57:10.957Z,69.36
2023-05-01T02:58:17.216Z,69.40
2023-05-01T02:59:19.320Z,69.26
2023-05-01T03:00:21.667Z,69.34
2023-05-01T03:01:23.922Z,69.32
2023-05-01T03:02:26.257Z,69.24
2023-05-01T03:03:28.527Z,69.30
2023-05-01T03:04:30.816Z,69.35
2023-05-01T03:05:32.933Z,69.43
2023-05-01T03:06:36.438Z,69.49
2023-05-01T03:07:38.602Z,69.56
2023-05-01T03:08:41.342Z,69.53
2023-05-01T03:09:44.008Z,69.61
2023-05-01T03:10:46.178Z,69.56
2023-05-01T03:11:48.701Z,69.70
2023-05-01T03:12:51.020Z,69.74
2023-05-01T03:13:53.282Z,69.84
2023-05-01T03:14:55.910Z,69.93
2023-05-01T03:15:58.088Z,70.02
2023-05-01T03:17:00.503Z,70.08
2023-05-01T03:18:03.530Z,70.04
2023-05-01T03:19:05.889Z,70.11
2023-05-01T03:20:08.764Z,70.15
2023-05-01T03:21:11.016Z,70.15
2023-05-01T03:22:13.188Z,70.16
2023-05-01T03:23:15.410Z,70.10
2023-05-01T03:24:17.691Z,70.17
2023-05-01T03:25:20.742Z,70.14
2023-05-01T03:26:23.447Z,70.01
2023-05-01T03:27:26.155Z,69.95
2023-05-01T03:28:30.410Z,69.96
2023-05-01T03:29:33.460Z,69.92
2023-05-01T03:30:36.417Z,69.87
2023-05-01T03:31:38.733Z,69.98
2023-05-01T03:32:42.701Z,70.09
2023-05-01T03:33:47.381Z,70.07
2023-05-01T03:34:51.488Z,70.17
2023-05-01T03:36:05.275Z,70.04
2023-05-01T03:37:08.302Z,70.21
2023-05-01T03:38:10.972Z,70.18
2023-05-01T03:39:31.558Z,70.07
2023-05-01T03:41:47.332Z,70.05
2023-05-01T03:42:54.177Z,70.08
2023-05-01T03:43:58.564Z,69.96
2023-05-01T03:45:11.792Z,69.86
2023-05-01T03:46:15.078Z,69.52
2023-05-01T03:47:17.739Z,69.49
2023-05-01T03:48:20.228Z,69.32
2023-05-01T03:49:22.812Z,69.16
2023-05-01T03:50:26.056Z,68.91
2023-05-01T03:51:28.847Z,68.91
2023-05-01T03:52:31.443Z,68.86
2023-05-01T03:53:34.387Z,68.60
2023-05-01T03:54:38.770Z,68.61
2023-05-01T03:55:57.929Z,68.54
2023-05-01T03:57:00.270Z,68.59
2023-05-01T03:58:02.536Z,68.57
2023-05-01T03:59:05.930Z,68.52
2023-05-01T04:00:09.538Z,68.51
2023-05-01T04:01:17.703Z,68.62
2023-05-01T04:02:20.148Z,68.45
2023-05-01T04:03:22.894Z,68.33
2023-05-01T04:04:27.142Z,68.32
2023-05-01T04:05:31.332Z,68.30
2023-05-01T04:06:35.813Z,68.47
2023-05-01T04:07:38.678Z,68.21
2023-05-01T04:08:41.560Z,68.23
2023-05-01T04:09:44.417Z,68.04
2023-05-01T04:10:46.842Z,68.09
2023-05-01T04:11:49.050Z,68.13
2023-05-01T04:12:51.697Z,68.10
2023-05-01T04:13:54.155Z,67.86
2023-05-01T04:14:56.308Z,67.67
2023-05-01T04:15:58.584Z,67.57
2023-05-01T04:17:01.735Z,67.67
2023-05-01T04:18:04.113Z,67.50
2023-05-01T04:19:06.875Z,67.50
2023-05-01T04:20:11.440Z,67.43
2023-05-01T04:21:14.298Z,67.26
2023-05-01T04:22:16.580Z,67.14
2023-05-01T04:23:20.117Z,67.19
2023-05-01T04:24:22.874Z,67.39
2023-05-01T04:25:24.970Z,67.18
2023-05-01T04:26:29.178Z,67.18
2023-05-01T04:27:32.141Z,67.00
2023-05-01T04:28:35.035Z,66.77
2023-05-01T04:29:38.167Z,66.74
2023-05-01T04:30:40.526Z,66.37
2023-05-01T04:31:43.691Z,66.18
2023-05-01T04:32:45.992Z,66.16
2023-05-01T04:33:48.776Z,66.26
2023-05-01T04:34:51.068Z,66.30
2023-05-01T04:35:53.622Z,66.04
2023-05-01T04:36:56.289Z,65.94
2023-05-01T04:37:58.828Z,65.67
2023-05-01T04:39:01.265Z,65.85
2023-05-01T04:40:04.768Z,65.81
2023-05-01T04:41:07.185Z,65.65
2023-05-01T04:42:09.532Z,65.48
2023-05-01T04:43:12.957Z,65.09
2023-05-01T04:44:16.255Z,64.78
2023-05-01T04:45:18.320Z,64.62
2023-05-01T04:46:21.143Z,64.68
2023-05-01T04:47:23.369Z,64.64
2023-05-01T04:48:25.912Z,64.63
2023-05-01T04:49:28.216Z,64.27
2023-05-01T04:50:30.924Z,64.21
2023-05-01T04:51:33.218Z,64.06
2023-05-01T04:52:36.105Z,63.95
2023-05-01T04:53:38.938Z,63.73
2023-05-01T04:54:42.934Z,63.34
2023-05-01T04:55:45.375Z,63.20
2023-05-01T04:56:50.124Z,63.28
2023-05-01T04:57:52.448Z,63.20
2023-05-01T04:58:55.505Z,62.91
2023-05-01T04:59:59.657Z,62.46
2023-05-01T05:01:02.010Z,62.14
2023-05-01T05:02:04.324Z,61.90
2023-05-01T05:03:06.703Z,61.83
2023-05-01T05:04:09.686Z,62.00
2023-05-01T05:05:11.981Z,61.74
2023-05-01T05:06:15.287Z,61.59
2023-05-01T05:07:17.477Z,60.61
2023-05-01T05:08:24.637Z,60.70
2023-05-01T05:09:28.701Z,60.58
2023-05-01T05:10:31.680Z,60.40
2023-05-01T05:11:38.642Z,60.27
2023-05-01T05:12:50.286Z,60.27
2023-05-01T05:13:58.594Z,60.01
2023-05-01T05:15:04.074Z,60.15
2023-05-01T05:16:11.224Z,59.89
2023-05-01T05:17:19.485Z,58.91
2023-05-01T05:18:25.977Z,58.64
2023-05-01T05:19:31.058Z,58.51
2023-05-01T05:20:37.840Z,58.30
2023-05-01T05:21:40.457Z,57.99
2023-05-01T05:22:48.191Z,57.88
2023-05-01T05:23:53.864Z,57.78
2023-05-01T05:25:02.430Z,57.69
2023-05-01T05:26:22.499Z,57.58
2023-05-01T05:27:32.262Z,57.61
2023-05-01T05:30:04.612Z,57.52
2023-05-01T05:32:22.120Z,57.82
2023-05-01T05:33:24.489Z,57.56
2023-05-01T05:34:26.859Z,56.66
2023-05-01T05:35:29.894Z,56.58
2023-05-01T05:36:32.458Z,56.47
2023-05-01T05:37:34.760Z,56.64
2023-05-01T05:38:37.410Z,56.06
2023-05-01T05:39:41.015Z,56.13
2023-05-01T05:40:43.883Z,56.29
2023-05-01T05:41:47.168Z,56.23
2023-05-01T05:42:49.707Z,55.46
2023-05-01T05:43:51.899Z,55.36
2023-05-01T05:44:53.974Z,54.77
2023-05-01T05:45:58.301Z,54.52
2023-05-01T05:47:01.595Z,54.32
2023-05-01T05:48:05.780Z,54.48
2023-05-01T05:49:09.454Z,54.49
2023-05-01T05:50:12.376Z,54.44
2023-05-01T05:51:15.032Z,54.36
2023-05-01T05:52:17.336Z,54.37
2023-05-01T05:53:24.383Z,53.95
2023-05-01T05:54:26.648Z,53.38
2023-05-01T05:55:29.293Z,53.62
2023-05-01T05:56:36.606Z,53.62
2023-05-01T05:57:38.898Z,53.26
2023-05-01T05:58:41.942Z,52.87
2023-05-01T05:59:44.188Z,52.30
2023-05-01T06:00:50.998Z,51.78
2023-05-01T06:01:54.686Z,52.21
2023-05-01T06:02:57.563Z,51.72
2023-05-01T06:04:01.401Z,51.72
2023-05-01T06:05:04.993Z,51.72
2023-05-01T06:06:07.967Z,52.05
2023-05-01T06:07:10.451Z,52.14
2023-05-01T06:08:13.673Z,51.61
2023-05-01T06:09:16.177Z,51.46
2023-05-01T06:10:18.457Z,51.13
2023-05-01T06:11:21.158Z,50.76
2023-05-01T06:12:23.472Z,50.40
2023-05-01T06:13:26.861Z,50.60
2023-05-01T06:14:29.016Z,50.30
2023-05-01T06:15:31.191Z,50.41
2023-05-01T06:16:34.514Z,50.42
2023-05-01T06:17:37.218Z,50.53
2023-05-01T06:18:39.604Z,49.73
2023-05-01T06:19:41.894Z,49.98
2023-05-01T06:20:45.534Z,49.39
2023-05-01T06:21:47.905Z,49.76
2023-05-01T06:22:50.187Z,49.90
2023-05-01T06:23:54.732Z,49.46
2023-05-01T06:24:58.838Z,49.49
2023-05-01T06:26:02.053Z,50.33
2023-05-01T06:27:05.560Z,49.38
2023-05-01T06:28:08.206Z,48.62
2023-05-01T06:29:12.394Z,48.21
2023-05-01T06:30:15.325Z,47.89
2023-05-01T06:31:17.752Z,47.64
2023-05-01T06:32:21.781Z,47.72
2023-05-01T06:33:24.530Z,48.03
2023-05-01T06:34:29.185Z,47.98
2023-05-01T06:35:32.538Z,48.33
2023-05-01T06:36:34.752Z,48.14
2023-05-01T06:37:38.019Z,47.81
2023-05-01T06:38:41.384Z,47.73
2023-05-01T06:39:45.260Z,47.50
2023-05-01T06:40:49.041Z,47.41
2023-05-01T06:41:51.007Z,46.63
2023-05-01T06:42:53.575Z,46.03
2023-05-01T06:43:57.662Z,45.93
2023-05-01T06:45:00.391Z,45.71
2023-05-01T06:46:03.778Z,46.01
2023-05-01T06:47:06.372Z,46.34
2023-05-01T06:48:08.620Z,46.83
2023-05-01T06:49:10.902Z,46.70
2023-05-01T06:50:14.883Z,45.29
2023-05-01T06:51:16.836Z,45.60
2023-05-01T06:52:19.495Z,44.87
2023-05-01T06:53:21.770Z,44.81
2023-05-01T06:54:24.058Z,45.03
2023-05-01T06:55:27.278Z,45.00
2023-05-01T06:56:29.697Z,45.12
2023-05-01T06:57:32.809Z,44.85
2023-05-01T06:58:35.011Z,43.88
2023-05-01T06:59:37.575Z,42.96
2023-05-01T07:00:39.879Z,43.34
2023-05-01T07:01:42.126Z,43.65
2023-05-01T07:02:44.914Z,43.72
2023-05-01T07:03:47.284Z,43.42
2023-05-01T07:04:49.353Z,42.32
2023-05-01T07:05:51.375Z,42.20
2023-05-01T07:06:53.750Z,42.22
2023-05-01T07:08:01.225Z,43.09
2023-05-01T07:09:00.272Z,43.52
2023-05-01T07:10:03.397Z,43.22
2023-05-01T07:11:06.792Z,42.84
2023-05-01T07:12:08.912Z,42.83
2023-05-01T07:13:11.375Z,42.45
2023-05-01T07:14:13.967Z,42.07
2023-05-01T07:15:16.511Z,42.40
2023-05-01T07:16:18.808Z,42.96
2023-05-01T07:17:21.084Z,39.95
2023-05-01T07:18:23.326Z,39.18
2023-05-01T07:19:25.492Z,39.59
2023-05-01T07:20:28.032Z,39.74
2023-05-01T07:21:30.028Z,39.76
2023-05-01T07:22:32.019Z,39.29
2023-05-01T07:23:34.918Z,39.08
2023-05-01T07:24:36.932Z,39.63
2023-05-01T07:25:38.908Z,39.49
2023-05-01T07:26:41.197Z,39.29
2023-05-01T07:27:44.168Z,39.38
2023-05-01T07:28:46.426Z,38.43
2023-05-01T07:29:50.098Z,39.16
2023-05-01T07:30:52.996Z,39.03
2023-05-01T07:31:55.729Z,38.92
2023-05-01T07:32:58.079Z,39.34
2023-05-01T07:34:00.135Z,39.58
2023-05-01T07:35:02.600Z,39.78
2023-05-01T07:36:05.061Z,41.41
2023-05-01T07:37:08.149Z,40.31
2023-05-01T07:38:10.398Z,40.04
2023-05-01T07:39:13.122Z,39.39
2023-05-01T07:40:16.097Z,39.19
2023-05-01T07:41:18.506Z,39.02
2023-05-01T07:42:21.723Z,39.24
2023-05-01T07:43:23.860Z,38.70
2023-05-01T07:44:26.858Z,39.34
2023-05-01T07:45:29.756Z,39.11
2023-05-01T07:46:32.767Z,39.76
2023-05-01T07:47:35.176Z,39.51
2023-05-01T07:48:39.018Z,39.53
2023-05-01T07:49:41.430Z,39.86
2023-05-01T07:50:43.594Z,38.82
2023-05-01T07:51:46.886Z,38.71
2023-05-01T07:52:48.976Z,38.29
2023-05-01T07:53:51.127Z,38.50
2023-05-01T07:54:53.769Z,38.49
2023-05-01T07:56:07.292Z,38.98
2023-05-01T07:57:09.501Z,38.88
2023-05-01T07:58:11.470Z,37.24
2023-05-01T07:59:15.517Z,36.70
2023-05-01T08:00:18.182Z,35.70
2023-05-01T08:01:20.222Z,35.70
2023-05-01T08:02:22.687Z,34.86
2023-05-01T08:03:27.174Z,36.33
2023-05-01T08:04:29.774Z,35.52
2023-05-01T08:05:31.976Z,35.98
2023-05-01T08:06:34.773Z,35.95
2023-05-01T08:07:37.230Z,36.33
2023-05-01T08:08:39.429Z,37.05
2023-05-01T08:09:41.595Z,35.65
2023-05-01T08:10:43.976Z,35.56
2023-05-01T08:11:46.049Z,35.09
2023-05-01T08:12:48.197Z,35.05
2023-05-01T08:13:50.299Z,35.26
2023-05-01T08:14:52.707Z,35.38
2023-05-01T08:15:55.315Z,35.51
2023-05-01T08:16:57.659Z,35.08
2023-05-01T08:17:59.843Z,34.52
2023-05-01T08:19:02.719Z,34.85
2023-05-01T08:20:05.756Z,34.41
2023-05-01T08:21:09.964Z,34.93
2023-05-01T08:22:12.228Z,35.52
2023-05-01T08:23:15.906Z,35.05
2023-05-01T08:24:18.204Z,34.64
2023-05-01T08:25:20.858Z,34.60
2023-05-01T08:26:23.143Z,35.10
2023-05-01T08:27:26.117Z,35.57
2023-05-01T08:28:28.349Z,35.11
2023-05-01T08:29:30.613Z,34.07
2023-05-01T08:30:33.720Z,33.54
2023-05-01T08:31:36.002Z,34.82
2023-05-01T08:32:38.175Z,34.56
2023-05-01T08:33:40.319Z,35.21
2023-05-01T08:34:42.557Z,34.77
2023-05-01T08:35:44.701Z,34.12
2023-05-01T08:36:47.356Z,33.91
2023-05-01T08:37:49.495Z,34.52
2023-05-01T08:38:51.686Z,34.45
2023-05-01T08:39:54.560Z,34.45
2023-05-01T08:40:57.051Z,34.50
2023-05-01T08:41:59.194Z,36.04
2023-05-01T08:43:01.589Z,35.66
2023-05-01T08:44:04.612Z,35.11
2023-05-01T08:45:11.181Z,35.61
2023-05-01T08:46:17.650Z,35.58
2023-05-01T08:47:21.397Z,35.71
2023-05-01T08:48:25.647Z,34.79
2023-05-01T08:49:29.937Z,35.56
2023-05-01T08:51:45.948Z,35.10
2023-05-01T08:52:51.167Z,34.93
2023-05-01T08:53:55.489Z,34.51
2023-05-01T08:55:00.600Z,34.82
2023-05-01T08:56:06.940Z,35.22
2023-05-01T08:57:11.161Z,34.57
2023-05-01T08:58:14.539Z,35.59
2023-05-01T08:59:18.849Z,35.58
2023-05-01T09:00:21.723Z,35.66
2023-05-01T09:01:24.940Z,35.90
2023-05-01T09:02:28.116Z,35.57
2023-05-01T09:03:32.792Z,35.19
2023-05-01T09:04:38.330Z,33.65
2023-05-01T09:05:40.568Z,33.83
2023-05-01T09:06:43.811Z,33.99
2023-05-01T09:07:47.073Z,33.72
2023-05-01T09:08:49.828Z,33.35
2023-05-01T09:09:52.474Z,34.17
2023-05-01T09:10:58.258Z,33.50
2023-05-01T09:13:19.074Z,33.17
2023-05-01T09:14:21.544Z,33.28
2023-05-01T09:15:26.094Z,33.57
2023-05-01T09:16:29.209Z,35.32
2023-05-01T09:17:32.783Z,34.23
2023-05-01T09:18:35.090Z,33.46
2023-05-01T09:19:37.879Z,34.56
2023-05-01T09:20:40.355Z,35.03
2023-05-01T09:21:43.114Z,34.92
2023-05-01T09:22:46.360Z,35.17
2023-05-01T09:23:51.365Z,33.53
2023-05-01T09:24:55.842Z,33.24
2023-05-01T09:25:59.892Z,32.86
2023-05-01T09:27:02.612Z,33.77
2023-05-01T09:28:05.737Z,34.06
2023-05-01T09:29:08.154Z,34.80
2023-05-01T09:30:29.634Z,35.05
2023-05-01T09:31:32.689Z,35.15
2023-05-01T09:32:35.102Z,34.60
2023-05-01T09:33:40.994Z,33.21
2023-05-01T09:34:51.096Z,33.16
2023-05-01T09:35:56.672Z,32.80
2023-05-01T09:36:59.060Z,33.49
2023-05-01T09:38:01.229Z,34.18
2023-05-01T09:39:03.957Z,33.91
2023-05-01T09:40:12.571Z,34.08
2023-05-01T09:41:15.829Z,33.84
2023-05-01T09:42:22.548Z,33.88
2023-05-01T09:43:26.718Z,33.63
2023-05-01T09:44:29.054Z,32.60
2023-05-01T09:45:31.698Z,34.29
2023-05-01T09:46:37.434Z,35.33
2023-05-01T09:47:41.479Z,33.59
2023-05-01T09:49:01.221Z,34.37
2023-05-01T09:50:03.851Z,33.78
2023-05-01T09:52:30.217Z,35.42
2023-05-01T09:54:46.562Z,34.91
2023-05-01T09:56:01.017Z,34.06
2023-05-01T09:57:03.776Z,34.81
2023-05-01T09:58:06.293Z,34.46
2023-05-01T09:59:16.735Z,34.87
2023-05-01T10:00:19.657Z,35.22
2023-05-01T10:01:41.704Z,33.58
2023-05-01T10:02:45.478Z,33.77
2023-05-01T10:03:52.473Z,34.51
2023-05-01T10:05:00.154Z,34.50
2023-05-01T10:06:02.508Z,33.65
2023-05-01T10:08:29.753Z,33.58
2023-05-01T10:09:32.126Z,33.65
2023-05-01T10:10:34.730Z,33.55
2023-05-01T10:11:51.369Z,33.23
2023-05-01T10:12:53.753Z,34.02
2023-05-01T10:14:09.871Z,32.89
2023-05-01T10:15:24.572Z,33.62
2023-05-01T10:16:29.784Z,34.95
2023-05-01T10:17:33.393Z,35.53
2023-05-01T10:18:37.147Z,34.36
2023-05-01T10:19:39.388Z,33.74
2023-05-01T10:20:41.975Z,32.96
2023-05-01T10:21:44.444Z,32.87
2023-05-01T10:22:46.772Z,32.44
2023-05-01T10:23:49.579Z,31.95
2023-05-01T10:24:52.383Z,31.32
2023-05-01T10:25:55.961Z,31.27
2023-05-01T10:27:00.158Z,31.12
2023-05-01T10:28:06.391Z,32.81
2023-05-01T10:29:08.815Z,33.56
2023-05-01T10:30:11.938Z,32.87
2023-05-01T10:31:14.919Z,32.90
2023-05-01T10:32:17.578Z,33.42
2023-05-01T10:33:20.469Z,32.20
2023-05-01T10:34:26.215Z,32.32
2023-05-01T10:35:35.865Z,33.06
2023-05-01T10:36:45.136Z,33.24
2023-05-01T10:39:00.161Z,32.85
2023-05-01T10:40:22.615Z,31.59
2023-05-01T10:43:18.647Z,32.34
2023-05-01T10:44:23.163Z,32.86
2023-05-01T10:45:28.896Z,32.96
2023-05-01T10:46:31.899Z,33.51
2023-05-01T10:47:37.770Z,31.69
2023-05-01T10:48:44.038Z,32.85
2023-05-01T10:50:10.870Z,33.42
2023-05-01T10:51:14.898Z,33.31
2023-05-01T10:52:17.586Z,33.84
2023-05-01T10:53:19.760Z,33.42
2023-05-01T10:54:23.957Z,32.36
2023-05-01T10:55:37.319Z,31.12
2023-05-01T10:56:41.766Z,31.07
2023-05-01T10:57:44.159Z,31.71
2023-05-01T10:58:50.837Z,31.93
2023-05-01T11:00:05.420Z,32.40
2023-05-01T11:02:39.609Z,31.75
2023-05-01T11:03:41.952Z,32.20
2023-05-01T11:04:49.718Z,32.52
2023-05-01T11:06:05.027Z,32.16
2023-05-01T11:07:16.147Z,32.13
2023-05-01T11:08:38.623Z,32.07
2023-05-01T11:12:14.864Z,31.41
2023-05-01T11:13:21.172Z,30.79
2023-05-01T11:14:23.413Z,30.72
2023-05-01T11:15:31.046Z,29.54
2023-05-01T11:16:41.840Z,30.99
2023-05-01T11:17:46.368Z,30.48
2023-05-01T11:18:48.626Z,30.37
2023-05-01T11:19:50.723Z,31.19
2023-05-01T11:20:53.310Z,30.70
2023-05-01T11:21:56.058Z,31.04
2023-05-01T11:22:58.597Z,30.08
2023-05-01T11:24:01.161Z,29.90
2023-05-01T11:25:06.589Z,30.08
2023-05-01T11:26:09.112Z,29.93
2023-05-01T11:27:13.589Z,29.32
2023-05-01T11:28:18.679Z,30.96
2023-05-01T11:29:21.508Z,31.21
2023-05-01T11:30:24.601Z,31.44
2023-05-01T11:31:27.709Z,31.82
2023-05-01T11:32:30.332Z,31.96
2023-05-01T11:33:32.987Z,32.13
2023-05-01T11:34:35.351Z,31.38
2023-05-01T11:35:38.126Z,30.23
2023-05-01T11:37:58.875Z,30.84
2023-05-01T11:39:01.060Z,29.96
2023-05-01T11:40:03.640Z,31.23
2023-05-01T11:41:05.887Z,29.79
2023-05-01T11:43:24.022Z,30.06
2023-05-01T11:44:26.677Z,29.96
2023-05-01T11:45:29.951Z,31.73
2023-05-01T11:46:33.116Z,29.70
2023-05-01T11:47:36.550Z,29.96
2023-05-01T11:48:38.829Z,30.65
2023-05-01T11:49:41.448Z,30.44
2023-05-01T11:50:43.866Z,31.52
2023-05-01T11:51:51.805Z,30.54
2023-05-01T11:52:54.485Z,30.04
2023-05-01T11:54:05.515Z,29.04
2023-05-01T11:55:08.035Z,29.54
2023-05-01T11:56:26.759Z,29.96
2023-05-01T11:57:25.257Z,30.23
2023-05-01T11:58:32.044Z,29.33
2023-05-01T11:59:34.373Z,30.08
2023-05-01T12:01:51.190Z,30.61
2023-05-01T12:03:12.416Z,31.07
2023-05-01T12:04:24.241Z,31.78
2023-05-01T12:05:27.861Z,32.28
2023-05-01T12:06:39.161Z,32.10
2023-05-01T12:07:41.985Z,30.62
2023-05-01T12:08:50.202Z,30.81
2023-05-01T12:09:52.495Z,30.54
2023-05-01T12:10:57.614Z,29.52
2023-05-01T12:12:00.201Z,29.20
2023-05-01T12:13:04.510Z,29.19
2023-05-01T12:14:07.728Z,29.61
2023-05-01T12:15:10.746Z,28.38
2023-05-01T12:16:13.367Z,29.22
2023-05-01T12:17:16.220Z,30.13
2023-05-01T12:18:19.400Z,30.53
2023-05-01T12:19:22.460Z,30.32
2023-05-01T12:20:37.167Z,31.22
2023-05-01T12:21:40.694Z,31.85
2023-05-01T12:22:49.537Z,31.77
2023-05-01T12:23:51.803Z,30.17
2023-05-01T12:24:54.018Z,30.11
2023-05-01T12:25:56.345Z,31.11
2023-05-01T12:28:12.599Z,31.09
2023-05-01T12:29:15.254Z,31.08
2023-05-01T12:30:21.156Z,30.93
2023-05-01T12:31:24.615Z,31.17
2023-05-01T12:32:32.031Z,31.61
2023-05-01T12:33:34.283Z,30.00
2023-05-01T12:34:36.440Z,29.20
2023-05-01T12:35:40.048Z,28.52
2023-05-01T12:36:47.066Z,28.22
2023-05-01T12:37:49.603Z,27.80
2023-05-01T12:39:06.918Z,29.29
2023-05-01T12:40:16.350Z,28.97
2023-05-01T12:41:18.597Z,28.00
2023-05-01T12:42:21.744Z,28.18
2023-05-01T12:43:32.605Z,29.20
2023-05-01T12:44:34.856Z,28.28
2023-05-01T12:45:40.122Z,27.84
2023-05-01T12:46:44.063Z,29.28
2023-05-01T12:47:46.427Z,29.06
2023-05-01T12:48:49.312Z,29.60
2023-05-01T12:49:55.182Z,30.36
2023-05-01T12:50:57.961Z,29.47
2023-05-01T12:52:01.273Z,29.42
2023-05-01T12:53:03.877Z,28.36
2023-05-01T12:54:06.033Z,28.90
2023-05-01T12:55:08.514Z,29.10
2023-05-01T12:56:22.489Z,28.73
2023-05-01T12:57:25.577Z,27.86
2023-05-01T12:59:46.406Z,28.73
2023-05-01T13:00:54.112Z,28.76
2023-05-01T13:03:11.671Z,28.78
2023-05-01T13:05:30.293Z,27.75
2023-05-01T13:06:33.152Z,28.93
2023-05-01T13:07:36.762Z,29.42
2023-05-01T13:08:40.178Z,29.79
2023-05-01T13:09:53.524Z,30.53
2023-05-01T13:10:58.256Z,30.39
2023-05-01T13:12:04.383Z,29.19
2023-05-01T13:13:07.138Z,29.17
2023-05-01T13:14:10.418Z,28.93
2023-05-01T13:16:29.535Z,29.08
2023-05-01T13:17:32.497Z,29.14
2023-05-01T13:18:43.557Z,29.02
2023-05-01T13:19:49.349Z,29.32
2023-05-01T13:20:52.062Z,28.06
2023-05-01T13:21:56.213Z,28.51
2023-05-01T13:22:58.412Z,28.31
2023-05-01T13:24:01.143Z,28.84
2023-05-01T13:26:26.114Z,29.11
2023-05-01T13:27:28.735Z,29.84
2023-05-01T13:28:31.411Z,29.64
2023-05-01T13:29:34.030Z,29.71
2023-05-01T13:30:36.866Z,29.07
2023-05-01T13:31:45.466Z,28.38
2023-05-01T13:32:49.179Z,29.13
2023-05-01T13:33:55.411Z,28.64
2023-05-01T13:35:02.797Z,29.57
2023-05-01T13:36:14.276Z,28.68
2023-05-01T13:37:11.276Z,29.01
2023-05-01T13:38:14.430Z,28.82
2023-05-01T13:39:20.862Z,29.07
2023-05-01T13:40:25.744Z,28.82
2023-05-01T13:41:28.535Z,29.27
2023-05-01T13:42:30.821Z,28.73
2023-05-01T13:43:34.965Z,29.18
2023-05-01T13:44:45.846Z,29.56
2023-05-01T13:45:48.109Z,29.27
2023-05-01T13:46:50.450Z,29.00
2023-05-01T13:47:53.227Z,29.27
2023-05-01T13:48:57.202Z,29.40
2023-05-01T13:49:59.553Z,28.84
2023-05-01T13:51:01.845Z,29.55
2023-05-01T13:52:04.239Z,29.48
2023-05-01T13:53:06.373Z,30.32
2023-05-01T13:54:09.931Z,30.51
2023-05-01T13:55:13.355Z,30.81
2023-05-01T13:56:16.298Z,29.07
2023-05-01T13:57:18.443Z,28.69
2023-05-01T13:58:20.583Z,28.67
2023-05-01T13:59:22.740Z,28.77
2023-05-01T14:00:26.049Z,28.65
2023-05-01T14:01:28.665Z,29.08
2023-05-01T14:02:31.034Z,28.78
2023-05-01T14:03:39.616Z,28.89
2023-05-01T14:04:44.488Z,28.95
2023-05-01T14:05:47.513Z,28.98
2023-05-01T14:06:50.237Z,28.87
2023-05-01T14:07:57.574Z,30.07
2023-05-01T14:08:59.669Z,29.33
2023-05-01T14:10:01.931Z,29.79
2023-05-01T14:11:07.453Z,29.43
2023-05-01T14:12:11.766Z,29.16
2023-05-01T14:13:17.602Z,27.89
2023-05-01T14:14:20.126Z,28.77
2023-05-01T14:15:22.365Z,29.38
2023-05-01T14:16:27.413Z,28.79
2023-05-01T14:17:32.002Z,28.77
2023-05-01T14:18:34.794Z,29.01
2023-05-01T14:19:38.762Z,29.21
2023-05-01T14:20:43.300Z,28.76
2023-05-01T14:21:45.674Z,28.36
2023-05-01T14:22:48.720Z,28.86
2023-05-01T14:23:55.766Z,29.05
2023-05-01T14:24:58.446Z,29.68
2023-05-01T14:26:01.068Z,29.16
2023-05-01T14:27:03.920Z,29.33
2023-05-01T14:28:06.726Z,29.62
2023-05-01T14:29:19.013Z,29.37
2023-05-01T14:30:38.034Z,29.09
2023-05-01T14:31:40.438Z,28.95
2023-05-01T14:32:43.177Z,28.63